McGuffey, Ohio
Current Conditions -  °F | °C
As of 10:53 AM on Saturday 22 Nov 2014 (Local Time) from KAOH Reporting Station
Overcast Overcast  
Wind Chill: 36°   Ceiling: 5500
Heat Index: 44°   Visibility: 10mi
Dew Point: 36°   Wind: 17mph
Humidity: 73%   Direction: 210°SSW
Pressure: 30.14"   Gusts: 29mph
Location:  40.69°N, 83.79°W
Report Text: KAOH 221553Z AUTO 21015G25KT 10SM BKN055 OVC090 07/02 A3014 RMK AO2 SLP217 T00670022
Loading
Personal Weather Stations






























Interactive Weather Map New forecast layout! Learn more

10-Day Weather Forecast

Advertisements
Track Severe Weather on mobile